Time,TemperatureF,DewpointF,PressureIn,WindDirection,WindDirectionDegrees,WindSpeedMPH,WindSpeedGustMPH,Humidity,HourlyPrecipIn,Conditions,Clouds,dailyrainin,SoftwareType,DateUTC
2013-04-16 00:03:00,34.6,22.9,29.60,ENE,73,0.0,2.0,62,0.00,,---,0.00,VWS V14.01,2013-04-16 07:03:00,
2013-04-16 00:08:00,34.6,18.3,29.60,NE,36,0.0,0.0,51,0.00,,---,0.00,VWS V14.01,2013-04-16 07:08:00,
2013-04-16 00:13:00,34.7,14.0,29.60,East,86,0.0,1.0,42,0.00,,---,0.00,VWS V14.01,2013-04-16 07:13:00,
2013-04-16 00:18:00,34.9,13.0,29.59,WSW,243,2.0,2.0,40,0.00,,---,0.00,VWS V14.01,2013-04-16 07:18:00,
2013-04-16 00:23:00,35.0,11.4,29.59,WSW,242,0.0,2.0,37,0.00,,---,0.00,VWS V14.01,2013-04-16 07:23:00,
2013-04-16 00:28:00,35.3,11.6,29.60,SSW,200,0.0,2.0,37,0.00,,---,0.00,VWS V14.01,2013-04-16 07:28:00,
2013-04-16 00:33:00,35.4,12.3,29.60,SSW,210,0.0,2.0,38,0.00,,---,0.00,VWS V14.01,2013-04-16 07:33:00,
2013-04-16 00:39:00,35.4,11.1,29.60,NE,36,0.0,1.0,36,0.00,,---,0.00,VWS V14.01,2013-04-16 07:39:00,
2013-04-16 00:44:00,35.6,10.0,29.60,SSE,147,0.0,1.0,34,0.00,,---,0.00,VWS V14.01,2013-04-16 07:44:00,
2013-04-16 00:49:00,35.7,9.4,29.60,NW,308,0.0,1.0,33,0.00,,---,0.00,VWS V14.01,2013-04-16 07:49:00,
2013-04-16 00:54:00,35.7,8.1,29.60,SW,228,0.0,1.0,31,0.00,,---,0.00,VWS V14.01,2013-04-16 07:54:00,
2013-04-16 00:59:00,35.8,8.1,29.60,South,186,1.0,2.0,31,0.00,,---,0.00,VWS V14.01,2013-04-16 07:59:00,
2013-04-16 01:04:00,35.8,7.4,29.60,SSE,148,0.0,0.0,30,0.00,,---,0.00,VWS V14.01,2013-04-16 08:04:00,
2013-04-16 01:09:00,35.7,7.3,29.60,ESE,117,0.0,0.0,30,0.00,,---,0.00,VWS V14.01,2013-04-16 08:09:00,
2013-04-16 01:14:00,35.5,9.3,29.60,SE,125,1.0,1.0,33,0.00,,---,0.00,VWS V14.01,2013-04-16 08:14:00,
2013-04-16 01:19:00,35.3,9.1,29.60,SSE,165,0.0,0.0,33,0.00,,---,0.00,VWS V14.01,2013-04-16 08:19:00,
2013-04-16 01:24:00,34.9,14.1,29.60,North,349,0.0,0.0,42,0.00,,---,0.00,VWS V14.01,2013-04-16 08:24:00,
2013-04-16 01:29:00,34.4,16.8,29.60,SSE,167,0.0,1.0,48,0.00,,---,0.00,VWS V14.01,2013-04-16 08:29:00,
2013-04-16 01:34:00,33.9,17.7,29.60,SE,137,0.0,1.0,51,0.00,,---,0.00,VWS V14.01,2013-04-16 08:34:00,
2013-04-16 01:39:00,33.5,17.8,29.59,SW,221,1.0,1.0,52,0.00,,---,0.00,VWS V14.01,2013-04-16 08:39:00,
2013-04-16 01:44:00,33.2,18.4,29.59,North,356,2.0,4.0,54,0.00,,---,0.00,VWS V14.01,2013-04-16 08:44:00,
2013-04-16 01:49:00,33.0,17.8,29.59,WNW,286,0.0,2.0,53,0.00,,---,0.00,VWS V14.01,2013-04-16 08:49:00,
2013-04-16 01:54:00,32.8,18.4,29.59,NNE,25,1.0,5.0,55,0.00,,---,0.00,VWS V14.01,2013-04-16 08:54:00,
2013-04-16 01:59:00,32.7,17.5,29.58,WSW,255,0.0,1.0,53,0.00,,---,0.00,VWS V14.01,2013-04-16 08:59:00,
2013-04-16 02:04:00,32.8,16.7,29.59,SE,128,0.0,1.0,51,0.00,,---,0.00,VWS V14.01,2013-04-16 09:04:00,
2013-04-16 02:10:00,32.7,19.6,29.58,SW,221,0.0,2.0,58,0.00,,---,0.00,VWS V14.01,2013-04-16 09:10:00,
2013-04-16 02:15:00,32.2,19.5,29.59,East,94,1.0,7.0,59,0.00,,---,0.00,VWS V14.01,2013-04-16 09:15:00,
2013-04-16 02:20:00,32.1,20.2,29.59,SSW,200,1.0,1.0,61,0.00,,---,0.00,VWS V14.01,2013-04-16 09:20:00,
2013-04-16 02:25:00,32.0,17.7,29.58,SSE,150,0.0,1.0,55,0.00,,---,0.00,VWS V14.01,2013-04-16 09:25:00,
2013-04-16 02:30:00,32.1,17.8,29.59,ESE,108,0.0,1.0,55,0.00,,---,0.00,VWS V14.01,2013-04-16 09:30:00,
2013-04-16 02:35:00,32.0,17.7,29.59,East,84,0.0,0.0,55,0.00,,---,0.00,VWS V14.01,2013-04-16 09:35:00,
2013-04-16 02:40:00,31.7,18.6,29.59,West,268,2.0,2.0,58,0.00,,---,0.00,VWS V14.01,2013-04-16 09:40:00,
2013-04-16 02:45:00,31.3,22.0,29.59,SSW,203,0.0,1.0,68,0.00,,---,0.00,VWS V14.01,2013-04-16 09:45:00,
2013-04-16 02:50:00,31.0,19.9,29.59,SSW,207,1.0,1.0,63,0.00,,---,0.00,VWS V14.01,2013-04-16 09:50:00,
2013-04-16 02:55:00,30.9,21.2,29.59,South,187,2.0,2.0,67,0.00,,---,0.00,VWS V14.01,2013-04-16 09:55:00,
2013-04-16 03:00:00,30.8,19.7,29.59,SSE,155,0.0,1.0,63,0.00,,---,0.00,VWS V14.01,2013-04-16 10:00:00,
2013-04-16 03:05:00,31.4,14.9,29.59,SSE,149,3.0,3.0,50,0.00,,---,0.00,VWS V14.01,2013-04-16 10:05:00,
2013-04-16 03:10:00,32.0,13.6,29.58,WNW,293,0.0,1.0,46,0.00,,---,0.00,VWS V14.01,2013-04-16 10:10:00,
2013-04-16 03:15:00,32.2,15.2,29.59,SSE,162,0.0,0.0,49,0.00,,---,0.00,VWS V14.01,2013-04-16 10:15:00,
2013-04-16 03:20:00,31.9,14.9,29.59,WSW,242,1.0,1.0,49,0.00,,---,0.00,VWS V14.01,2013-04-16 10:20:00,
2013-04-16 03:26:00,31.9,15.4,29.59,SSW,197,2.0,7.0,50,0.00,,---,0.00,VWS V14.01,2013-04-16 10:26:00,
2013-04-16 03:31:00,31.9,18.0,29.59,East,85,1.0,1.0,56,0.00,,---,0.00,VWS V14.01,2013-04-16 10:31:00,
2013-04-16 03:36:00,31.7,17.8,29.60,West,281,1.0,3.0,56,0.00,,---,0.00,VWS V14.01,2013-04-16 10:36:00,
2013-04-16 03:41:00,31.3,21.6,29.60,WSW,238,0.0,1.0,67,0.00,,---,0.00,VWS V14.01,2013-04-16 10:41:00,
2013-04-16 03:46:00,30.5,23.2,29.60,WNW,283,3.0,5.0,74,0.00,,---,0.00,VWS V14.01,2013-04-16 10:46:00,
2013-04-16 03:51:00,30.0,23.4,29.60,SW,217,2.0,3.0,76,0.00,,---,0.00,VWS V14.01,2013-04-16 10:51:00,
2013-04-16 03:56:00,29.8,22.9,29.60,West,280,0.0,0.0,75,0.00,,---,0.00,VWS V14.01,2013-04-16 10:56:00,
2013-04-16 04:01:00,29.8,22.5,29.60,SE,146,0.0,2.0,74,0.00,,---,0.00,VWS V14.01,2013-04-16 11:01:00,
2013-04-16 04:06:00,29.9,20.6,29.59,ESE,122,0.0,3.0,68,0.00,,---,0.00,VWS V14.01,2013-04-16 11:06:00,
2013-04-16 04:11:00,30.0,18.2,29.59,East,95,0.0,2.0,61,0.00,,---,0.00,VWS V14.01,2013-04-16 11:11:00,
2013-04-16 04:16:00,30.3,15.2,29.59,SSE,149,0.0,1.0,53,0.00,,---,0.00,VWS V14.01,2013-04-16 11:16:00,
2013-04-16 04:21:00,30.6,13.7,29.59,SW,222,1.0,3.0,49,0.00,,---,0.00,VWS V14.01,2013-04-16 11:21:00,
2013-04-16 04:26:00,30.8,13.4,29.59,ESE,111,2.0,2.0,48,0.00,,---,0.00,VWS V14.01,2013-04-16 11:26:00,
2013-04-16 04:31:00,30.6,13.7,29.59,SE,141,0.0,2.0,49,0.00,,---,0.00,VWS V14.01,2013-04-16 11:31:00,
2013-04-16 04:37:00,30.4,12.6,29.59,ENE,74,0.0,0.0,47,0.00,,---,0.00,VWS V14.01,2013-04-16 11:37:00,
2013-04-16 04:42:00,30.3,11.0,29.59,ENE,76,0.0,0.0,44,0.00,,---,0.00,VWS V14.01,2013-04-16 11:42:00,
2013-04-16 04:47:00,30.2,10.4,29.60,SSE,153,0.0,1.0,43,0.00,,---,0.00,VWS V14.01,2013-04-16 11:47:00,
2013-04-16 04:52:00,29.9,11.6,29.59,South,172,0.0,0.0,46,0.00,,---,0.00,VWS V14.01,2013-04-16 11:52:00,
2013-04-16 04:57:00,29.8,12.5,29.59,SE,146,0.0,0.0,48,0.00,,---,0.00,VWS V14.01,2013-04-16 11:57:00,
2013-04-16 05:02:00,29.7,10.5,29.59,SSW,195,0.0,1.0,44,0.00,,---,0.00,VWS V14.01,2013-04-16 12:02:00,
2013-04-16 05:07:00,29.7,8.4,29.59,South,179,0.0,0.0,40,0.00,,---,0.00,VWS V14.01,2013-04-16 12:07:00,
2013-04-16 05:12:00,29.6,7.1,29.59,East,94,0.0,0.0,38,0.00,,---,0.00,VWS V14.01,2013-04-16 12:12:00,
2013-04-16 05:17:00,29.5,8.7,29.59,SSE,159,0.0,0.0,41,0.00,,---,0.00,VWS V14.01,2013-04-16 12:17:00,
2013-04-16 05:22:00,29.5,10.8,29.59,SSW,203,0.0,0.0,45,0.00,,---,0.00,VWS V14.01,2013-04-16 12:22:00,
2013-04-16 05:27:00,29.5,12.7,29.59,SSE,153,0.0,1.0,49,0.00,,---,0.00,VWS V14.01,2013-04-16 12:27:00,
2013-04-16 05:32:00,29.4,13.5,29.58,SSW,211,0.0,2.0,51,0.00,,---,0.00,VWS V14.01,2013-04-16 12:32:00,
2013-04-16 05:37:00,29.3,13.9,29.59,ESE,111,0.0,1.0,52,0.00,,---,0.00,VWS V14.01,2013-04-16 12:37:00,
2013-04-16 05:42:00,29.1,14.1,29.59,SSW,193,0.0,0.0,53,0.00,,---,0.00,VWS V14.01,2013-04-16 12:42:00,
2013-04-16 05:47:00,29.0,13.6,29.59,ESE,120,1.0,1.0,52,0.00,,---,0.00,VWS V14.01,2013-04-16 12:47:00,
2013-04-16 05:52:00,28.8,13.0,29.59,SSE,153,0.0,1.0,51,0.00,,---,0.00,VWS V14.01,2013-04-16 12:52:00,
2013-04-16 05:58:00,28.8,13.4,29.59,SSE,157,0.0,0.0,52,0.00,,---,0.00,VWS V14.01,2013-04-16 12:58:00,
2013-04-16 06:03:00,28.6,13.6,29.60,East,81,0.0,0.0,53,0.00,,---,0.00,VWS V14.01,2013-04-16 13:03:00,
2013-04-16 06:08:00,28.4,13.5,29.60,East,82,0.0,0.0,53,0.00,,---,0.00,VWS V14.01,2013-04-16 13:08:00,
2013-04-16 06:13:00,28.2,13.3,29.60,East,82,0.0,0.0,53,0.00,,---,0.00,VWS V14.01,2013-04-16 13:13:00,
2013-04-16 06:18:00,27.8,12.0,29.60,East,82,0.0,0.0,51,0.00,,---,0.00,VWS V14.01,2013-04-16 13:18:00,
2013-04-16 06:23:00,27.5,11.3,29.60,ENE,60,0.0,0.0,50,0.00,,---,0.00,VWS V14.01,2013-04-16 13:23:00,
2013-04-16 06:28:00,27.4,11.2,29.60,NNW,329,0.0,0.0,50,0.00,,---,0.00,VWS V14.01,2013-04-16 13:28:00,
2013-04-16 06:33:00,27.4,11.2,29.61,NNW,344,1.0,1.0,50,0.00,,---,0.00,VWS V14.01,2013-04-16 13:33:00,
2013-04-16 06:38:00,27.6,12.3,29.61,NNW,330,0.0,0.0,52,0.00,,---,0.00,VWS V14.01,2013-04-16 13:38:00,
2013-04-16 06:43:00,27.9,13.4,29.61,North,352,0.0,0.0,54,0.00,,---,0.00,VWS V14.01,2013-04-16 13:43:00,
2013-04-16 06:48:00,28.1,14.0,29.62,NNE,27,0.0,0.0,55,0.00,,---,0.00,VWS V14.01,2013-04-16 13:48:00,
2013-04-16 06:53:00,28.1,14.4,29.62,ESE,116,0.0,0.0,56,0.00,,---,0.00,VWS V14.01,2013-04-16 13:53:00,
2013-04-16 06:58:00,28.3,15.0,29.62,ESE,117,0.0,1.0,57,0.00,,---,0.00,VWS V14.01,2013-04-16 13:58:00,
2013-04-16 07:03:00,28.5,15.2,29.63,ESE,117,0.0,0.0,57,0.00,,---,0.00,VWS V14.01,2013-04-16 14:03:00,
2013-04-16 07:08:00,28.9,15.6,29.63,WNW,300,0.0,0.0,57,0.00,,---,0.00,VWS V14.01,2013-04-16 14:08:00,
2013-04-16 07:13:00,29.4,15.7,29.63,NW,316,0.0,0.0,56,0.00,,---,0.00,VWS V14.01,2013-04-16 14:13:00,
2013-04-16 07:18:00,30.1,15.9,29.63,NW,316,0.0,0.0,55,0.00,,---,0.00,VWS V14.01,2013-04-16 14:18:00,
2013-04-16 07:23:00,30.8,15.7,29.63,West,271,0.0,0.0,53,0.00,,---,0.00,VWS V14.01,2013-04-16 14:23:00,
2013-04-16 07:29:00,31.6,16.5,29.64,WNW,290,0.0,0.0,53,0.00,,---,0.00,VWS V14.01,2013-04-16 14:29:00,
2013-04-16 07:34:00,32.3,16.7,29.64,WSW,254,1.0,1.0,52,0.00,,---,0.00,VWS V14.01,2013-04-16 14:34:00,
2013-04-16 07:39:00,33.0,17.3,29.64,NW,308,2.0,3.0,52,0.00,,---,0.00,VWS V14.01,2013-04-16 14:39:00,
2013-04-16 07:44:00,33.4,17.2,29.65,NW,322,1.0,2.0,51,0.00,,---,0.00,VWS V14.01,2013-04-16 14:44:00,
2013-04-16 07:49:00,33.6,16.5,29.65,NW,305,0.0,1.0,49,0.00,,---,0.00,VWS V14.01,2013-04-16 14:49:00,
2013-04-16 07:54:00,34.1,17.0,29.66,NNW,330,2.0,5.0,49,0.00,,---,0.00,VWS V14.01,2013-04-16 14:54:00,
2013-04-16 07:59:00,34.5,16.9,29.66,WNW,291,2.0,4.0,48,0.00,,---,0.00,VWS V14.01,2013-04-16 14:59:00,
2013-04-16 08:04:00,34.9,16.7,29.67,West,264,3.0,5.0,47,0.00,,---,0.00,VWS V14.01,2013-04-16 15:04:00,
2013-04-16 08:09:00,35.3,16.1,29.66,NW,326,1.0,2.0,45,0.00,,---,0.00,VWS V14.01,2013-04-16 15:09:00,
2013-04-16 08:14:00,35.8,15.0,29.66,WSW,248,0.0,4.0,42,0.00,,---,0.00,VWS V14.01,2013-04-16 15:14:00,
2013-04-16 08:19:00,36.7,16.3,29.66,WNW,300,0.0,0.0,43,0.00,,---,0.00,VWS V14.01,2013-04-16 15:19:00,
2013-04-16 08:24:00,37.5,16.0,29.66,WNW,297,2.0,2.0,41,0.00,,---,0.00,VWS V14.01,2013-04-16 15:24:00,
2013-04-16 08:29:00,37.4,15.9,29.66,NW,304,2.0,4.0,41,0.00,,---,0.00,VWS V14.01,2013-04-16 15:29:00,
2013-04-16 08:34:00,37.7,16.1,29.66,NW,326,1.0,1.0,41,0.00,,---,0.00,VWS V14.01,2013-04-16 15:34:00,
2013-04-16 08:39:00,38.0,15.8,29.67,NNW,328,0.0,4.0,40,0.00,,---,0.00,VWS V14.01,2013-04-16 15:39:00,
2013-04-16 08:45:00,38.4,14.4,29.67,West,263,0.0,1.0,37,0.00,,---,0.00,VWS V14.01,2013-04-16 15:45:00,
2013-04-16 08:50:00,38.8,14.8,29.67,WSW,253,1.0,5.0,37,0.00,,---,0.00,VWS V14.01,2013-04-16 15:50:00,
2013-04-16 08:55:00,39.5,14.8,29.67,SE,146,0.0,2.0,36,0.00,,---,0.00,VWS V14.01,2013-04-16 15:55:00,
2013-04-16 09:00:00,39.7,12.3,29.67,North,349,3.0,3.0,32,0.00,,---,0.00,VWS V14.01,2013-04-16 16:00:00,
2013-04-16 09:05:00,39.6,14.2,29.67,West,273,1.0,2.0,35,0.00,,---,0.00,VWS V14.01,2013-04-16 16:05:00,
2013-04-16 09:10:00,40.0,14.6,29.67,NNW,332,6.0,6.0,35,0.00,,---,0.00,VWS V14.01,2013-04-16 16:10:00,
2013-04-16 09:15:00,40.1,14.0,29.68,NW,305,0.0,0.0,34,0.00,,---,0.00,VWS V14.01,2013-04-16 16:15:00,
2013-04-16 09:20:00,40.0,13.9,29.68,NNW,342,2.0,4.0,34,0.00,,---,0.00,VWS V14.01,2013-04-16 16:20:00,
2013-04-16 09:25:00,39.7,13.6,29.68,SW,224,0.0,4.0,34,0.00,,---,0.00,VWS V14.01,2013-04-16 16:25:00,
2013-04-16 09:30:00,39.9,13.8,29.68,NW,305,2.0,5.0,34,0.00,,---,0.00,VWS V14.01,2013-04-16 16:30:00,
2013-04-16 09:36:00,39.9,13.8,29.67,WSW,253,2.0,3.0,34,0.00,,---,0.00,VWS V14.01,2013-04-16 16:36:00,
2013-04-16 09:41:00,39.7,13.6,29.68,NNE,23,5.0,5.0,34,0.00,,---,0.00,VWS V14.01,2013-04-16 16:41:00,
2013-04-16 09:46:00,39.5,14.1,29.68,North,352,4.0,7.0,35,0.00,,---,0.00,VWS V14.01,2013-04-16 16:46:00,
2013-04-16 09:51:00,38.7,9.9,29.68,NW,322,2.0,8.0,30,0.00,,---,0.00,VWS V14.01,2013-04-16 16:51:00,
2013-04-16 09:57:00,38.6,10.6,29.69,WSW,242,2.0,3.0,31,0.00,,---,0.00,VWS V14.01,2013-04-16 16:57:00,
2013-04-16 10:02:00,38.6,11.3,29.69,NW,314,2.0,2.0,32,0.00,,---,0.00,VWS V14.01,2013-04-16 17:02:00,
2013-04-16 10:07:00,38.4,8.9,29.69,West,281,2.0,3.0,29,0.00,,---,0.00,VWS V14.01,2013-04-16 17:07:00,
2013-04-16 10:12:00,38.0,10.8,29.69,NW,323,4.0,4.0,32,0.00,,---,0.00,VWS V14.01,2013-04-16 17:12:00,
2013-04-16 10:17:00,38.0,11.5,29.69,NNW,340,1.0,3.0,33,0.00,,---,0.00,VWS V14.01,2013-04-16 17:17:00,
2013-04-16 10:22:00,38.3,10.3,29.70,NNW,344,5.0,8.0,31,0.00,,---,0.00,VWS V14.01,2013-04-16 17:22:00,
2013-04-16 10:28:00,38.2,10.9,29.70,NNE,19,5.0,5.0,32,0.00,,---,0.00,VWS V14.01,2013-04-16 17:28:00,
2013-04-16 10:33:00,38.7,9.9,29.70,West,267,1.0,9.0,30,0.00,,---,0.00,VWS V14.01,2013-04-16 17:33:00,
2013-04-16 10:38:00,38.8,11.5,29.70,West,267,0.0,5.0,32,0.00,,---,0.00,VWS V14.01,2013-04-16 17:38:00,
2013-04-16 10:43:00,38.7,13.4,29.70,NW,308,2.0,4.0,35,0.00,,---,0.00,VWS V14.01,2013-04-16 17:43:00,
2013-04-16 10:48:00,39.4,12.7,29.70,NW,323,4.0,9.0,33,0.00,,---,0.00,VWS V14.01,2013-04-16 17:48:00,
2013-04-16 10:53:00,39.3,13.9,29.71,West,259,4.0,9.0,35,0.00,,---,0.00,VWS V14.01,2013-04-16 17:53:00,
2013-04-16 10:58:00,39.3,15.8,29.71,SSW,204,0.0,1.0,38,0.00,,---,0.00,VWS V14.01,2013-04-16 17:58:00,
2013-04-16 11:03:00,39.5,14.1,29.72,WNW,288,2.0,4.0,35,0.00,,---,0.00,VWS V14.01,2013-04-16 18:03:00,
2013-04-16 11:08:00,39.1,15.6,29.72,West,274,4.0,10.0,38,0.00,,---,0.00,VWS V14.01,2013-04-16 18:08:00,
2013-04-16 11:13:00,38.7,16.5,29.72,WNW,289,1.0,4.0,40,0.00,,---,0.00,VWS V14.01,2013-04-16 18:13:00,
2013-04-16 11:18:00,38.8,14.8,29.72,North,358,2.0,4.0,37,0.00,,---,0.00,VWS V14.01,2013-04-16 18:18:00,
2013-04-16 11:23:00,39.1,15.0,29.72,East,91,1.0,2.0,37,0.00,,---,0.00,VWS V14.01,2013-04-16 18:23:00,
2013-04-16 11:28:00,38.9,12.9,29.72,NNW,330,2.0,8.0,34,0.00,,---,0.00,VWS V14.01,2013-04-16 18:28:00,
2013-04-16 11:33:00,38.6,13.3,29.72,NNW,339,2.0,8.0,35,0.00,,---,0.00,VWS V14.01,2013-04-16 18:33:00,
2013-04-16 11:38:00,39.0,12.4,29.72,NW,315,2.0,3.0,33,0.00,,---,0.00,VWS V14.01,2013-04-16 18:38:00,
2013-04-16 11:43:00,39.4,13.4,29.72,North,1,4.0,7.0,34,0.00,,---,0.00,VWS V14.01,2013-04-16 18:43:00,
2013-04-16 11:48:00,39.1,11.0,29.72,ENE,63,1.0,5.0,31,0.00,,---,0.00,VWS V14.01,2013-04-16 18:48:00,
2013-04-16 11:53:00,38.8,13.5,29.72,SSW,207,2.0,3.0,35,0.00,,---,0.00,VWS V14.01,2013-04-16 18:53:00,
2013-04-16 11:59:00,39.3,11.9,29.72,SW,228,2.0,4.0,32,0.00,,---,0.00,VWS V14.01,2013-04-16 18:59:00,
2013-04-16 12:04:00,39.5,12.8,29.72,NNW,329,0.0,2.0,33,0.00,,---,0.00,VWS V14.01,2013-04-16 19:04:00,
2013-04-16 12:09:00,39.7,13.0,29.72,NNW,335,0.0,5.0,33,0.00,,---,0.00,VWS V14.01,2013-04-16 19:09:00,
2013-04-16 12:14:00,40.1,12.6,29.72,NW,319,2.0,6.0,32,0.00,,---,0.00,VWS V14.01,2013-04-16 19:14:00,
2013-04-16 12:19:00,40.3,13.5,29.72,SSW,211,1.0,6.0,33,0.00,,---,0.00,VWS V14.01,2013-04-16 19:19:00,
2013-04-16 12:24:00,40.7,12.4,29.72,West,264,0.0,5.0,31,0.00,,---,0.00,VWS V14.01,2013-04-16 19:24:00,
2013-04-16 12:29:00,40.8,14.6,29.72,SSE,160,2.0,4.0,34,0.00,,---,0.00,VWS V14.01,2013-04-16 19:29:00,
2013-04-16 12:34:00,41.3,15.1,29.72,East,79,1.0,1.0,34,0.00,,---,0.00,VWS V14.01,2013-04-16 19:34:00,
2013-04-16 12:39:00,42.1,13.7,29.72,NW,322,2.0,2.0,31,0.00,,---,0.00,VWS V14.01,2013-04-16 19:39:00,
2013-04-16 12:44:00,42.9,12.9,29.72,East,93,0.0,2.0,29,0.00,,---,0.00,VWS V14.01,2013-04-16 19:44:00,
2013-04-16 12:49:00,42.7,11.1,29.72,NNE,23,1.0,4.0,27,0.00,,---,0.00,VWS V14.01,2013-04-16 19:49:00,
2013-04-16 12:54:00,42.0,12.1,29.72,WNW,288,7.0,7.0,29,0.00,,---,0.00,VWS V14.01,2013-04-16 19:54:00,
2013-04-16 12:59:00,41.6,13.2,29.72,NW,319,8.0,8.0,31,0.00,,---,0.00,VWS V14.01,2013-04-16 19:59:00,
2013-04-16 13:04:00,42.1,14.4,29.73,NW,319,3.0,5.0,32,0.00,,---,0.00,VWS V14.01,2013-04-16 20:04:00,
2013-04-16 13:09:00,43.2,15.4,29.73,ESE,106,1.0,1.0,32,0.00,,---,0.00,VWS V14.01,2013-04-16 20:09:00,
2013-04-16 13:14:00,42.7,11.9,29.73,NW,321,2.0,5.0,28,0.00,,---,0.00,VWS V14.01,2013-04-16 20:14:00,
2013-04-16 13:19:00,41.7,11.8,29.73,NNW,347,1.0,4.0,29,0.00,,---,0.00,VWS V14.01,2013-04-16 20:19:00,
2013-04-16 13:24:00,41.8,11.9,29.73,NW,319,2.0,4.0,29,0.00,,---,0.00,VWS V14.01,2013-04-16 20:24:00,
2013-04-16 13:29:00,41.9,12.0,29.73,West,263,2.0,3.0,29,0.00,,---,0.00,VWS V14.01,2013-04-16 20:29:00,
2013-04-16 13:34:00,41.3,12.2,29.73,West,280,0.0,3.0,30,0.00,,---,0.00,VWS V14.01,2013-04-16 20:34:00,
2013-04-16 13:40:00,41.8,13.4,29.74,East,79,1.0,1.0,31,0.00,,---,0.00,VWS V14.01,2013-04-16 20:40:00,
2013-04-16 13:45:00,41.9,13.5,29.73,NW,314,5.0,5.0,31,0.00,,---,0.00,VWS V14.01,2013-04-16 20:45:00,
2013-04-16 13:50:00,41.9,13.5,29.74,WNW,283,3.0,6.0,31,0.00,,---,0.00,VWS V14.01,2013-04-16 20:50:00,
2013-04-16 13:55:00,42.1,13.7,29.74,West,281,2.0,7.0,31,0.00,,---,0.00,VWS V14.01,2013-04-16 20:55:00,
2013-04-16 14:00:00,41.7,14.7,29.74,SE,131,1.0,1.0,33,0.00,,---,0.00,VWS V14.01,2013-04-16 21:00:00,
2013-04-16 14:05:00,42.6,14.8,29.74,West,268,2.0,6.0,32,0.00,,---,0.00,VWS V14.01,2013-04-16 21:05:00,
2013-04-16 14:10:00,42.3,12.3,29.74,WNW,293,5.0,8.0,29,0.00,,---,0.00,VWS V14.01,2013-04-16 21:10:00,
2013-04-16 14:15:00,41.7,14.0,29.74,NW,309,2.0,2.0,32,0.00,,---,0.00,VWS V14.01,2013-04-16 21:15:00,
2013-04-16 14:20:00,41.7,14.0,29.74,West,264,2.0,2.0,32,0.00,,---,0.00,VWS V14.01,2013-04-16 21:20:00,
2013-04-16 14:25:00,41.3,13.0,29.75,WNW,297,3.0,11.0,31,0.00,,---,0.00,VWS V14.01,2013-04-16 21:25:00,
2013-04-16 14:30:00,41.3,13.7,29.74,WNW,291,1.0,2.0,32,0.00,,---,0.00,VWS V14.01,2013-04-16 21:30:00,
2013-04-16 14:35:00,42.2,15.2,29.75,West,259,3.0,3.0,33,0.00,,---,0.00,VWS V14.01,2013-04-16 21:35:00,
2013-04-16 14:40:00,41.8,14.1,29.75,WNW,298,3.0,3.0,32,0.00,,---,0.00,VWS V14.01,2013-04-16 21:40:00,
2013-04-16 14:45:00,41.5,14.6,29.75,WNW,295,2.0,4.0,33,0.00,,---,0.00,VWS V14.01,2013-04-16 21:45:00,
2013-04-16 14:50:00,42.2,16.5,29.75,North,349,0.0,1.0,35,0.00,,---,0.00,VWS V14.01,2013-04-16 21:50:00,
2013-04-16 14:56:00,42.9,16.5,29.75,West,271,1.0,2.0,34,0.00,,---,0.00,VWS V14.01,2013-04-16 21:56:00,
2013-04-16 15:01:00,43.1,18.0,29.75,NE,49,0.0,0.0,36,0.00,,---,0.00,VWS V14.01,2013-04-16 22:01:00,
2013-04-16 15:06:00,42.4,17.4,29.75,West,280,2.0,5.0,36,0.00,,---,0.00,VWS V14.01,2013-04-16 22:06:00,
2013-04-16 15:11:00,42.7,17.6,29.75,North,11,0.0,2.0,36,0.00,,---,0.00,VWS V14.01,2013-04-16 22:11:00,
2013-04-16 15:16:00,42.4,20.4,29.75,WNW,300,5.0,7.0,41,0.00,,---,0.00,VWS V14.01,2013-04-16 22:16:00,
2013-04-16 15:21:00,42.0,22.7,29.75,North,350,5.0,5.0,46,0.00,,---,0.00,VWS V14.01,2013-04-16 22:21:00,
2013-04-16 15:27:00,42.3,17.3,29.75,South,190,2.0,4.0,36,0.00,,---,0.00,VWS V14.01,2013-04-16 22:27:00,
2013-04-16 15:32:00,42.3,20.3,29.75,WSW,258,1.0,6.0,41,0.00,,---,0.00,VWS V14.01,2013-04-16 22:32:00,
2013-04-16 15:37:00,42.1,22.3,29.75,SE,135,0.0,2.0,45,0.00,,---,0.00,VWS V14.01,2013-04-16 22:37:00,
2013-04-16 15:42:00,42.5,24.7,29.75,South,170,1.0,1.0,49,0.00,,---,0.00,VWS V14.01,2013-04-16 22:42:00,
2013-04-16 15:47:00,42.7,20.1,29.75,WNW,302,0.0,0.0,40,0.00,,---,0.00,VWS V14.01,2013-04-16 22:47:00,
2013-04-16 15:52:00,42.7,20.1,29.75,WNW,288,1.0,3.0,40,0.00,,---,0.00,VWS V14.01,2013-04-16 22:52:00,
2013-04-16 15:57:00,42.3,19.1,29.75,South,187,1.0,2.0,39,0.00,,---,0.00,VWS V14.01,2013-04-16 22:57:00,
2013-04-16 16:02:00,42.3,19.7,29.75,SW,228,0.0,0.0,40,0.00,,---,0.00,VWS V14.01,2013-04-16 23:02:00,
2013-04-16 16:07:00,41.3,22.1,29.75,SSW,211,0.0,0.0,46,0.00,,---,0.00,VWS V14.01,2013-04-16 23:07:00,
2013-04-16 16:13:00,40.0,24.3,29.75,SSW,203,0.0,1.0,53,0.00,,---,0.00,VWS V14.01,2013-04-16 23:13:00,
2013-04-16 16:18:00,39.3,24.9,29.75,ENE,76,0.0,1.0,56,0.00,,---,0.00,VWS V14.01,2013-04-16 23:18:00,
2013-04-16 16:23:00,38.8,24.9,29.75,ENE,60,0.0,0.0,57,0.00,,---,0.00,VWS V14.01,2013-04-16 23:23:00,
2013-04-16 16:28:00,39.3,25.4,29.75,SSW,194,0.0,0.0,57,0.00,,---,0.00,VWS V14.01,2013-04-16 23:28:00,
2013-04-16 16:33:00,39.0,25.9,29.75,ENE,76,0.0,0.0,59,0.00,,---,0.00,VWS V14.01,2013-04-16 23:33:00,
2013-04-16 16:38:00,38.6,24.3,29.75,SW,214,0.0,1.0,56,0.00,,---,0.00,VWS V14.01,2013-04-16 23:38:00,
2013-04-16 16:43:00,38.4,24.5,29.75,ENE,66,0.0,1.0,57,0.00,,---,0.00,VWS V14.01,2013-04-16 23:43:00,
2013-04-16 16:48:00,38.1,24.6,29.76,North,360,0.0,1.0,58,0.00,,---,0.00,VWS V14.01,2013-04-16 23:48:00,
2013-04-16 16:53:00,38.5,25.8,29.76,WNW,298,0.0,1.0,60,0.00,,---,0.00,VWS V14.01,2013-04-16 23:53:00,
2013-04-16 16:58:00,38.8,24.5,29.76,SW,231,2.0,2.0,56,0.00,,---,0.00,VWS V14.01,2013-04-16 23:58:00,
2013-04-16 17:03:00,38.2,21.7,29.76,NNW,338,0.0,1.0,51,0.00,,---,0.00,VWS V14.01,2013-04-17 00:03:00,
2013-04-16 17:08:00,37.8,24.8,29.76,SE,125,1.0,2.0,59,0.00,,---,0.00,VWS V14.01,2013-04-17 00:08:00,
2013-04-16 17:13:00,37.8,22.7,29.76,NW,305,0.0,2.0,54,0.00,,---,0.00,VWS V14.01,2013-04-17 00:13:00,
2013-04-16 17:19:00,37.0,21.0,29.76,NNE,30,0.0,2.0,52,0.00,,---,0.00,VWS V14.01,2013-04-17 00:19:00,
2013-04-16 17:24:00,36.4,21.4,29.76,WNW,298,0.0,0.0,54,0.00,,---,0.00,VWS V14.01,2013-04-17 00:24:00,
2013-04-16 17:29:00,36.2,22.5,29.76,SSW,193,0.0,2.0,57,0.00,,---,0.00,VWS V14.01,2013-04-17 00:29:00,
2013-04-16 17:34:00,36.3,23.4,29.76,NW,323,1.0,1.0,59,0.00,,---,0.00,VWS V14.01,2013-04-17 00:34:00,
2013-04-16 17:39:00,36.3,22.5,29.77,SE,145,0.0,1.0,57,0.00,,---,0.00,VWS V14.01,2013-04-17 00:39:00,
2013-04-16 17:44:00,36.0,21.8,29.77,NNE,30,0.0,3.0,56,0.00,,---,0.00,VWS V14.01,2013-04-17 00:44:00,
2013-04-16 17:49:00,35.8,21.6,29.77,NW,308,2.0,5.0,56,0.00,,---,0.00,VWS V14.01,2013-04-17 00:49:00,
2013-04-16 17:54:00,35.5,21.4,29.78,WNW,300,1.0,1.0,56,0.00,,---,0.00,VWS V14.01,2013-04-17 00:54:00,
2013-04-16 17:59:00,35.1,21.0,29.78,NW,326,7.0,7.0,56,0.00,,---,0.00,VWS V14.01,2013-04-17 00:59:00,
2013-04-16 18:04:00,34.7,18.4,29.78,WSW,256,12.0,12.0,51,0.00,,---,0.00,VWS V14.01,2013-04-17 01:04:00,
2013-04-16 18:09:00,34.5,15.9,29.78,WSW,243,8.0,8.0,46,0.00,,---,0.00,VWS V14.01,2013-04-17 01:09:00,
2013-04-16 18:14:00,34.1,17.4,29.79,West,259,0.0,8.0,50,0.00,,---,0.00,VWS V14.01,2013-04-17 01:14:00,
2013-04-16 18:20:00,34.1,17.0,29.79,NW,309,0.0,10.0,49,0.00,,---,0.00,VWS V14.01,2013-04-17 01:20:00,
2013-04-16 18:25:00,34.3,16.7,29.79,NW,304,3.0,6.0,48,0.00,,---,0.00,VWS V14.01,2013-04-17 01:25:00,
2013-04-16 18:30:00,34.1,16.0,29.79,ESE,110,4.0,6.0,47,0.00,,---,0.00,VWS V14.01,2013-04-17 01:30:00,
2013-04-16 18:35:00,33.9,15.8,29.79,SSW,194,0.0,2.0,47,0.00,,---,0.00,VWS V14.01,2013-04-17 01:35:00,
2013-04-16 18:40:00,33.6,15.5,29.79,ESE,110,1.0,5.0,47,0.00,,---,0.00,VWS V14.01,2013-04-17 01:40:00,
2013-04-16 18:45:00,33.5,15.4,29.79,NNW,333,2.0,6.0,47,0.00,,---,0.00,VWS V14.01,2013-04-17 01:45:00,
2013-04-16 18:50:00,33.2,15.6,29.79,NW,304,6.0,6.0,48,0.00,,---,0.00,VWS V14.01,2013-04-17 01:50:00,
2013-04-16 18:55:00,33.0,15.5,29.80,NW,304,3.0,5.0,48,0.00,,---,0.00,VWS V14.01,2013-04-17 01:55:00,
2013-04-16 19:00:00,32.7,15.2,29.80,South,176,3.0,5.0,48,0.00,,---,0.00,VWS V14.01,2013-04-17 02:00:00,
2013-04-16 19:05:00,32.3,14.8,29.80,SW,217,2.0,4.0,48,0.00,,---,0.00,VWS V14.01,2013-04-17 02:05:00,
2013-04-16 19:10:00,31.9,14.4,29.80,ENE,74,0.0,0.0,48,0.00,,---,0.00,VWS V14.01,2013-04-17 02:10:00,
2013-04-16 19:15:00,31.6,14.6,29.80,WNW,283,3.0,3.0,49,0.00,,---,0.00,VWS V14.01,2013-04-17 02:15:00,
2013-04-16 19:20:00,31.3,14.8,29.81,WSW,240,4.0,5.0,50,0.00,,---,0.00,VWS V14.01,2013-04-17 02:20:00,
2013-04-16 19:25:00,30.9,14.5,29.81,WSW,258,1.0,3.0,50,0.00,,---,0.00,VWS V14.01,2013-04-17 02:25:00,
2013-04-16 19:30:00,30.7,14.7,29.81,NW,308,1.0,4.0,51,0.00,,---,0.00,VWS V14.01,2013-04-17 02:30:00,
2013-04-16 19:36:00,30.5,14.5,29.81,NW,320,1.0,2.0,51,0.00,,---,0.00,VWS V14.01,2013-04-17 02:36:00,
2013-04-16 19:41:00,30.3,14.4,29.82,South,174,1.0,1.0,51,0.00,,---,0.00,VWS V14.01,2013-04-17 02:41:00,
2013-04-16 19:46:00,30.1,14.6,29.82,WSW,240,0.0,2.0,52,0.00,,---,0.00,VWS V14.01,2013-04-17 02:46:00,
2013-04-16 19:51:00,30.0,14.5,29.82,SW,226,1.0,1.0,52,0.00,,---,0.00,VWS V14.01,2013-04-17 02:51:00,
2013-04-16 19:56:00,29.8,14.8,29.82,WSW,253,3.0,4.0,53,0.00,,---,0.00,VWS V14.01,2013-04-17 02:56:00,
2013-04-16 20:01:00,29.7,15.1,29.83,ENE,57,0.0,0.0,54,0.00,,---,0.00,VWS V14.01,2013-04-17 03:01:00,
2013-04-16 20:06:00,29.6,15.0,29.83,East,85,0.0,1.0,54,0.00,,---,0.00,VWS V14.01,2013-04-17 03:06:00,
2013-04-16 20:11:00,29.5,15.3,29.84,East,79,0.0,2.0,55,0.00,,---,0.00,VWS V14.01,2013-04-17 03:11:00,
2013-04-16 20:17:00,29.3,15.1,29.84,ESE,108,0.0,3.0,55,0.00,,---,0.00,VWS V14.01,2013-04-17 03:17:00,
2013-04-16 20:22:00,29.2,15.5,29.84,South,190,0.0,1.0,56,0.00,,---,0.00,VWS V14.01,2013-04-17 03:22:00,
2013-04-16 20:27:00,29.0,15.3,29.85,NNW,347,1.0,3.0,56,0.00,,---,0.00,VWS V14.01,2013-04-17 03:27:00,
2013-04-16 20:32:00,28.8,15.1,29.85,NNW,335,1.0,2.0,56,0.00,,---,0.00,VWS V14.01,2013-04-17 03:32:00,
2013-04-16 20:37:00,28.6,15.3,29.86,SE,124,0.0,0.0,57,0.00,,---,0.00,VWS V14.01,2013-04-17 03:37:00,
2013-04-16 20:42:00,28.5,15.2,29.86,ESE,111,0.0,0.0,57,0.00,,---,0.00,VWS V14.01,2013-04-17 03:42:00,
2013-04-16 20:47:00,28.4,15.5,29.86,NNE,31,0.0,0.0,58,0.00,,---,0.00,VWS V14.01,2013-04-17 03:47:00,
2013-04-16 20:52:00,28.4,15.1,29.87,West,267,0.0,0.0,57,0.00,,---,0.00,VWS V14.01,2013-04-17 03:52:00,
2013-04-16 20:57:00,28.3,15.0,29.87,SE,141,0.0,0.0,57,0.00,,---,0.00,VWS V14.01,2013-04-17 03:57:00,
2013-04-16 21:00:00,28.3,15.0,29.87,ESE,118,0.0,1.0,57,0.00,,---,0.00,VWS V14.01,2013-04-17 04:00:00,
2013-04-16 21:01:00,28.3,15.0,29.87,WNW,283,0.0,2.0,57,0.00,,---,0.00,VWS V14.01,2013-04-17 04:01:00,
2013-04-16 21:06:00,28.2,15.3,29.87,West,270,0.0,1.0,58,0.00,,---,0.00,VWS V14.01,2013-04-17 04:06:00,
2013-04-16 21:07:00,28.2,15.3,29.88,West,270,0.0,0.0,58,0.00,,---,0.00,VWS V14.01,2013-04-17 04:07:00,
2013-04-16 21:09:00,28.1,15.2,29.88,West,276,0.0,0.0,58,0.00,,---,0.00,VWS V14.01,2013-04-17 04:09:00,
2013-04-16 21:14:00,28.0,15.1,29.88,NNE,19,1.0,1.0,58,0.00,,---,0.00,VWS V14.01,2013-04-17 04:14:00,
2013-04-16 21:19:00,28.0,15.1,29.88,NW,311,1.0,1.0,58,0.00,,---,0.00,VWS V14.01,2013-04-17 04:19:00,
2013-04-16 21:25:00,27.9,15.1,29.89,West,274,1.0,1.0,58,0.00,,---,0.00,VWS V14.01,2013-04-17 04:25:00,
2013-04-16 21:30:00,27.8,15.0,29.89,WNW,283,2.0,4.0,58,0.00,,---,0.00,VWS V14.01,2013-04-17 04:30:00,
2013-04-16 21:35:00,27.9,15.1,29.89,NW,311,0.0,1.0,58,0.00,,---,0.00,VWS V14.01,2013-04-17 04:35:00,
2013-04-16 21:40:00,27.9,15.1,29.89,NW,317,0.0,0.0,58,0.00,,---,0.00,VWS V14.01,2013-04-17 04:40:00,
2013-04-16 21:45:00,27.9,15.1,29.90,WNW,291,4.0,4.0,58,0.00,,---,0.00,VWS V14.01,2013-04-17 04:45:00,
2013-04-16 21:50:00,27.9,15.1,29.89,ESE,102,1.0,4.0,58,0.00,,---,0.00,VWS V14.01,2013-04-17 04:50:00,
2013-04-16 21:55:00,27.8,15.0,29.89,NNW,335,0.0,0.0,58,0.00,,---,0.00,VWS V14.01,2013-04-17 04:55:00,
2013-04-16 22:00:00,27.7,15.3,29.89,WNW,291,3.0,6.0,59,0.00,,---,0.00,VWS V14.01,2013-04-17 05:00:00,
2013-04-16 22:05:00,27.6,15.2,29.89,ENE,69,3.0,7.0,59,0.00,,---,0.00,VWS V14.01,2013-04-17 05:05:00,
2013-04-16 22:10:00,27.7,15.6,29.89,SE,128,2.0,11.0,60,0.00,,---,0.00,VWS V14.01,2013-04-17 05:10:00,
2013-04-16 22:15:00,27.7,15.6,29.89,WSW,258,3.0,12.0,60,0.00,,---,0.00,VWS V14.01,2013-04-17 05:15:00,
2013-04-16 22:20:00,27.8,16.1,29.89,NW,311,3.0,9.0,61,0.00,,---,0.00,VWS V14.01,2013-04-17 05:20:00,
2013-04-16 22:25:00,27.8,16.1,29.90,East,80,0.0,1.0,61,0.00,,---,0.00,VWS V14.01,2013-04-17 05:25:00,
2013-04-16 22:30:00,27.6,16.3,29.90,South,188,1.0,1.0,62,0.00,,---,0.00,VWS V14.01,2013-04-17 05:30:00,
2013-04-16 22:35:00,27.6,16.3,29.90,North,8,0.0,3.0,62,0.00,,---,0.00,VWS V14.01,2013-04-17 05:35:00,
2013-04-16 22:40:00,27.6,16.3,29.90,WSW,240,2.0,2.0,62,0.00,,---,0.00,VWS V14.01,2013-04-17 05:40:00,
2013-04-16 22:46:00,27.6,16.7,29.90,West,262,0.0,0.0,63,0.00,,---,0.00,VWS V14.01,2013-04-17 05:46:00,
2013-04-16 22:51:00,27.5,16.2,29.90,SW,235,1.0,1.0,62,0.00,,---,0.00,VWS V14.01,2013-04-17 05:51:00,
2013-04-16 22:56:00,27.5,16.2,29.90,East,90,0.0,0.0,62,0.00,,---,0.00,VWS V14.01,2013-04-17 05:56:00,
2013-04-16 23:01:00,27.4,16.1,29.90,SSW,205,0.0,0.0,62,0.00,,---,0.00,VWS V14.01,2013-04-17 06:01:00,
2013-04-16 23:06:00,27.4,16.1,29.90,West,271,0.0,1.0,62,0.00,,---,0.00,VWS V14.01,2013-04-17 06:06:00,
2013-04-16 23:12:00,27.5,16.2,29.90,NW,321,0.0,0.0,62,0.00,,---,0.00,VWS V14.01,2013-04-17 06:12:00,
2013-04-16 23:17:00,27.7,16.4,29.90,ENE,77,0.0,0.0,62,0.00,,---,0.00,VWS V14.01,2013-04-17 06:17:00,
2013-04-16 23:22:00,27.8,16.1,29.90,SE,146,0.0,0.0,61,0.00,,---,0.00,VWS V14.01,2013-04-17 06:22:00,
2013-04-16 23:27:00,28.0,16.7,29.91,North,359,1.0,4.0,62,0.00,,---,0.00,VWS V14.01,2013-04-17 06:27:00,
2013-04-16 23:32:00,28.2,16.5,29.91,East,79,0.0,0.0,61,0.00,,---,0.00,VWS V14.01,2013-04-17 06:32:00,
2013-04-16 23:37:00,28.3,16.6,29.91,NE,37,0.0,0.0,61,0.00,,---,0.00,VWS V14.01,2013-04-17 06:37:00,
2013-04-16 23:42:00,28.4,16.7,29.91,North,8,0.0,0.0,61,0.00,,---,0.00,VWS V14.01,2013-04-17 06:42:00,
2013-04-16 23:47:00,28.5,16.8,29.91,North,349,0.0,1.0,61,0.00,,---,0.00,VWS V14.01,2013-04-17 06:47:00,
2013-04-16 23:52:00,28.6,17.2,29.92,SSW,197,0.0,0.0,62,0.00,,---,0.00,VWS V14.01,2013-04-17 06:52:00,
2013-04-16 23:57:00,28.7,17.7,29.92,NNE,26,0.0,0.0,63,0.00,,---,0.00,VWS V14.01,2013-04-17 06:57:00,